PWSweather.com
Personal Weather Stations
Station Observations
KKYCRABO2
Cedar Creek Lake 840 Ky. Hwy. 39 N, Crab Orchard, KY 40419

Cedar Creek Lake 840 Ky. Hwy. 39 NCrab Orchard, KY 40419

Lat: 37.4736234544238, Lon: -84.5120286941528

Elevation: 952

Station Type: TYCON Power TP1080WC Pro

http://kbweather.net/

High Low Average
Temperature 82.9°F28.3°F 61.9°F16.6°F 68.0°F20.0°F
Dew Point 68.0°F20.0°F 57.2°F14.0°F 62.3°F16.8°F
Winds 9.2 mph WNW14.8 mph WNW Calm Calm 1.5 mph 2.4 mph
Wind Gusts 11.9 mph19.2 mph -- 3.1 mph5.0 mph
Humidity 98% 52% 83%
Pressure 30.00 in1015.90 in 29.88 in1011.90 in -
Precipitation 9.52 in241.80 in - -
Hour Temp Dew Point Humidity Winds Wind Gusts Pressure Precip Precip Rate Daily Precip Total
12:00 AM 62.6°F17.0°C 62.6°F17.0°C 97% 1.1 mph SSE1.8 kmh SSE 3.1 mph5.0 kmh 29.94 in1013.9 mb 0.08 in2.0 mm 0.00 in0.0 mm 0.08 in2.0 mm
12:05 AM 62.6°F17.0°C 62.6°F17.0°C 97% 3.1 mph S5.0 kmh S 3.1 mph5.0 kmh 29.94 in1013.9 mb 0.08 in2.0 mm 0.00 in0.0 mm 0.08 in2.0 mm
12:10 AM 62.6°F17.0°C 62.6°F17.0°C 97% 1.6 mph S2.6 kmh S 2.9 mph4.7 kmh 29.94 in1013.9 mb 0.08 in2.0 mm 0.00 in0.0 mm 0.08 in2.0 mm
12:15 AM 62.6°F17.0°C 62.6°F17.0°C 97% 2.5 mph S4.0 kmh S 3.1 mph5.0 kmh 29.94 in1013.9 mb 0.08 in2.0 mm 0.00 in0.0 mm 0.08 in2.0 mm
12:20 AM 62.6°F17.0°C 62.6°F17.0°C 97% 0.9 mph SSE1.4 kmh SSE 3.1 mph5.0 kmh 29.94 in1013.9 mb 0.08 in2.0 mm 0.00 in0.0 mm 0.08 in2.0 mm
12:25 AM 62.6°F17.0°C 62.6°F17.0°C 97% Calm Calm 2.7 mph4.3 kmh 29.97 in1014.9 mb 0.08 in2.0 mm 0.00 in0.0 mm 0.08 in2.0 mm
12:30 AM 62.6°F17.0°C 62.6°F17.0°C 97% 1.6 mph S2.6 kmh S 2.2 mph3.5 kmh 29.97 in1014.9 mb 0.04 in1.0 mm 0.00 in0.0 mm 0.08 in2.0 mm
12:35 AM 62.6°F17.0°C 62.6°F17.0°C 97% 0.9 mph SSE1.4 kmh SSE 2.0 mph3.2 kmh 29.97 in1014.9 mb 0.08 in2.0 mm 0.48 in12.2 mm 0.04 in1.0 mm
12:40 AM 62.6°F17.0°C 62.6°F17.0°C 97% Calm Calm 2.7 mph4.3 kmh 29.94 in1013.9 mb 0.04 in1.0 mm 0.00 in0.0 mm 0.04 in1.0 mm
12:45 AM 62.6°F17.0°C 62.6°F17.0°C 97% Calm Calm 2.7 mph4.3 kmh 29.94 in1013.9 mb 0.04 in1.0 mm 0.00 in0.0 mm 0.04 in1.0 mm
12:50 AM 62.6°F17.0°C 62.6°F17.0°C 97% 0.9 mph SSE1.4 kmh SSE 1.6 mph2.6 kmh 29.94 in1013.9 mb 0.04 in1.0 mm 0.00 in0.0 mm 0.04 in1.0 mm
12:55 AM 62.6°F17.0°C 62.6°F17.0°C 97% 1.3 mph SSE2.1 kmh SSE 2.0 mph3.2 kmh 29.94 in1013.9 mb 0.04 in1.0 mm 0.00 in0.0 mm 0.04 in1.0 mm
01:00 AM 62.6°F17.0°C 62.6°F17.0°C 97% 2.2 mph SSE3.5 kmh SSE 2.2 mph3.5 kmh 29.94 in1013.9 mb 0.04 in1.0 mm 0.00 in0.0 mm 0.04 in1.0 mm
01:05 AM 62.8°F17.1°C 62.6°F17.0°C 97% 1.3 mph S2.1 kmh S 2.5 mph4.0 kmh 29.94 in1013.9 mb 0.04 in1.0 mm 0.00 in0.0 mm 0.04 in1.0 mm
01:10 AM 62.6°F17.0°C 62.6°F17.0°C 97% 2.2 mph S3.5 kmh S 2.9 mph4.7 kmh 29.94 in1013.9 mb 0.08 in2.0 mm 0.48 in12.2 mm 0.08 in2.0 mm
01:15 AM 62.6°F17.0°C 62.6°F17.0°C 97% 2.9 mph SSE4.7 kmh SSE 3.4 mph5.5 kmh 29.94 in1013.9 mb 0.08 in2.0 mm 0.00 in0.0 mm 0.08 in2.0 mm
01:20 AM 62.6°F17.0°C 62.6°F17.0°C 97% Calm Calm 3.4 mph5.5 kmh 29.94 in1013.9 mb 0.08 in2.0 mm 0.00 in0.0 mm 0.08 in2.0 mm
01:25 AM 62.6°F17.0°C 62.6°F17.0°C 97% 1.1 mph S1.8 kmh S 3.4 mph5.5 kmh 29.94 in1013.9 mb 0.12 in3.0 mm 0.48 in12.2 mm 0.12 in3.0 mm
01:30 AM 62.6°F17.0°C 62.6°F17.0°C 97% 2.2 mph S3.5 kmh S 3.1 mph5.0 kmh 29.94 in1013.9 mb 0.12 in3.0 mm 0.00 in0.0 mm 0.12 in3.0 mm
01:35 AM 62.6°F17.0°C 62.6°F17.0°C 97% Calm Calm 3.1 mph5.0 kmh 29.94 in1013.9 mb 0.08 in2.0 mm 0.00 in0.0 mm 0.12 in3.0 mm
01:40 AM 62.6°F17.0°C 62.6°F17.0°C 97% Calm Calm 3.1 mph5.0 kmh 29.91 in1012.9 mb 0.08 in2.0 mm 0.00 in0.0 mm 0.12 in3.0 mm
01:45 AM 62.6°F17.0°C 62.6°F17.0°C 97% 2.7 mph S4.3 kmh S 4.3 mph6.9 kmh 29.91 in1012.9 mb 0.08 in2.0 mm 0.00 in0.0 mm 0.12 in3.0 mm
01:50 AM 62.4°F16.9°C 62.6°F17.0°C 97% 3.6 mph S5.8 kmh S 4.3 mph6.9 kmh 29.91 in1012.9 mb 0.08 in2.0 mm 0.00 in0.0 mm 0.12 in3.0 mm
01:55 AM 62.4°F16.9°C 62.6°F17.0°C 97% 2.7 mph SSE4.3 kmh SSE 4.3 mph6.9 kmh 29.94 in1013.9 mb 0.08 in2.0 mm 0.00 in0.0 mm 0.12 in3.0 mm
02:00 AM 62.4°F16.9°C 62.6°F17.0°C 97% 2.2 mph S3.5 kmh S 4.3 mph6.9 kmh 29.94 in1013.9 mb 0.08 in2.0 mm 0.00 in0.0 mm 0.12 in3.0 mm
02:05 AM 62.4°F16.9°C 62.6°F17.0°C 97% 2.9 mph S4.7 kmh S 3.4 mph5.5 kmh 29.94 in1013.9 mb 0.13 in3.3 mm 0.60 in15.2 mm 0.17 in4.3 mm
02:10 AM 62.4°F16.9°C 62.6°F17.0°C 97% 2.7 mph S4.3 kmh S 3.4 mph5.5 kmh 29.94 in1013.9 mb 0.09 in2.3 mm 0.00 in0.0 mm 0.17 in4.3 mm
02:15 AM 62.6°F17.0°C 62.6°F17.0°C 98% 1.3 mph S2.1 kmh S 3.4 mph5.5 kmh 29.94 in1013.9 mb 0.13 in3.3 mm 0.48 in12.2 mm 0.21 in5.3 mm
02:20 AM 62.6°F17.0°C 62.6°F17.0°C 98% 1.3 mph SSW2.1 kmh SSW 2.0 mph3.2 kmh 29.94 in1013.9 mb 0.17 in4.3 mm 0.48 in12.2 mm 0.25 in6.4 mm
02:25 AM 62.4°F16.9°C 62.6°F17.0°C 98% 0.9 mph SSW1.4 kmh SSW 3.8 mph6.1 kmh 29.94 in1013.9 mb 0.13 in3.3 mm 0.00 in0.0 mm 0.25 in6.4 mm
02:30 AM 62.4°F16.9°C 62.6°F17.0°C 97% 1.1 mph S1.8 kmh S 3.8 mph6.1 kmh 29.94 in1013.9 mb 0.17 in4.3 mm 0.48 in12.2 mm 0.29 in7.4 mm
02:35 AM 62.4°F16.9°C 62.6°F17.0°C 97% 2.2 mph S3.5 kmh S 3.8 mph6.1 kmh 29.94 in1013.9 mb 0.17 in4.3 mm 0.00 in0.0 mm 0.29 in7.4 mm
02:40 AM 62.2°F16.8°C 60.8°F16.0°C 97% 3.4 mph SSE5.5 kmh SSE 4.0 mph6.4 kmh 29.94 in1013.9 mb 0.17 in4.3 mm 0.00 in0.0 mm 0.29 in7.4 mm
02:45 AM 62.2°F16.8°C 60.8°F16.0°C 97% 2.2 mph S3.5 kmh S 4.0 mph6.4 kmh 29.94 in1013.9 mb 0.17 in4.3 mm 0.00 in0.0 mm 0.29 in7.4 mm
02:50 AM 62.2°F16.8°C 60.8°F16.0°C 97% 1.1 mph S1.8 kmh S 4.0 mph6.4 kmh 29.94 in1013.9 mb 0.17 in4.3 mm 0.00 in0.0 mm 0.29 in7.4 mm
02:55 AM 62.2°F16.8°C 60.8°F16.0°C 97% 1.1 mph S1.8 kmh S 2.9 mph4.7 kmh 29.91 in1012.9 mb 0.17 in4.3 mm 0.00 in0.0 mm 0.29 in7.4 mm
03:00 AM 62.2°F16.8°C 60.8°F16.0°C 97% Calm Calm 1.6 mph2.6 kmh 29.91 in1012.9 mb 0.21 in5.3 mm 0.04 in1.0 mm 0.33 in8.4 mm
03:05 AM 62.2°F16.8°C 60.8°F16.0°C 97% Calm Calm 1.6 mph2.6 kmh 29.91 in1012.9 mb 0.16 in4.1 mm 0.00 in0.0 mm 0.33 in8.4 mm
03:10 AM 62.2°F16.8°C 60.8°F16.0°C 97% Calm Calm 1.3 mph2.1 kmh 29.94 in1013.9 mb 0.16 in4.1 mm 0.00 in0.0 mm 0.33 in8.4 mm
03:15 AM 62.2°F16.8°C 60.8°F16.0°C 97% Calm Calm 1.3 mph2.1 kmh 29.94 in1013.9 mb 0.12 in3.0 mm 0.00 in0.0 mm 0.33 in8.4 mm
03:20 AM 62.2°F16.8°C 60.8°F16.0°C 97% 0.9 mph SW1.4 kmh SW 0.9 mph1.4 kmh 29.94 in1013.9 mb 0.08 in2.0 mm 0.00 in0.0 mm 0.33 in8.4 mm
03:25 AM 62.2°F16.8°C 60.8°F16.0°C 97% 0.9 mph SW1.4 kmh SW 2.0 mph3.2 kmh 29.94 in1013.9 mb 0.08 in2.0 mm 0.00 in0.0 mm 0.33 in8.4 mm
03:30 AM 62.2°F16.8°C 60.8°F16.0°C 97% 2.2 mph SSW3.5 kmh SSW 2.5 mph4.0 kmh 29.94 in1013.9 mb 0.04 in1.0 mm 0.00 in0.0 mm 0.33 in8.4 mm
03:35 AM 62.2°F16.8°C 60.8°F16.0°C 97% Calm Calm 2.5 mph4.0 kmh 29.94 in1013.9 mb 0.04 in1.0 mm 0.00 in0.0 mm 0.33 in8.4 mm
03:40 AM 62.2°F16.8°C 60.8°F16.0°C 97% Calm Calm -- 29.97 in1014.9 mb 0.08 in2.0 mm 0.48 in12.2 mm 0.37 in9.4 mm
03:45 AM 62.2°F16.8°C 60.8°F16.0°C 97% Calm Calm -- 29.97 in1014.9 mb 0.13 in3.3 mm 0.60 in15.2 mm 0.42 in10.7 mm
03:50 AM 62.4°F16.9°C 62.6°F17.0°C 97% 1.6 mph SSW2.6 kmh SSW 2.0 mph3.2 kmh 29.97 in1014.9 mb 0.13 in3.3 mm 0.00 in0.0 mm 0.42 in10.7 mm
03:55 AM 62.4°F16.9°C 62.6°F17.0°C 97% 2.0 mph SSW3.2 kmh SSW 2.7 mph4.3 kmh 29.94 in1013.9 mb 0.13 in3.3 mm 0.00 in0.0 mm 0.42 in10.7 mm
04:00 AM 62.4°F16.9°C 62.6°F17.0°C 97% Calm Calm 2.7 mph4.3 kmh 29.94 in1013.9 mb 0.09 in2.3 mm 0.00 in0.0 mm 0.42 in10.7 mm
04:05 AM 62.4°F16.9°C 62.6°F17.0°C 97% 0.9 mph SSW1.4 kmh SSW 2.7 mph4.3 kmh 29.94 in1013.9 mb 0.09 in2.3 mm 0.00 in0.0 mm 0.42 in10.7 mm
04:10 AM 62.4°F16.9°C 62.6°F17.0°C 97% 1.1 mph S1.8 kmh S 2.2 mph3.5 kmh 29.91 in1012.9 mb 0.09 in2.3 mm 0.00 in0.0 mm 0.42 in10.7 mm
04:15 AM 62.4°F16.9°C 62.6°F17.0°C 97% 1.1 mph S1.8 kmh S 2.0 mph3.2 kmh 29.91 in1012.9 mb 0.13 in3.3 mm 0.48 in12.2 mm 0.46 in11.7 mm
04:20 AM 62.4°F16.9°C 62.6°F17.0°C 97% 1.6 mph SSW2.6 kmh SSW 2.0 mph3.2 kmh 29.91 in1012.9 mb 0.13 in3.3 mm 0.00 in0.0 mm 0.46 in11.7 mm
04:25 AM 62.6°F17.0°C 62.6°F17.0°C 97% 0.9 mph SSW1.4 kmh SSW 2.2 mph3.5 kmh 29.94 in1013.9 mb 0.13 in3.3 mm 0.00 in0.0 mm 0.46 in11.7 mm
04:30 AM 62.6°F17.0°C 62.6°F17.0°C 97% 2.2 mph SSW3.5 kmh SSW 2.9 mph4.7 kmh 29.94 in1013.9 mb 0.13 in3.3 mm 0.00 in0.0 mm 0.46 in11.7 mm
04:35 AM 62.6°F17.0°C 62.6°F17.0°C 97% 1.1 mph SSW1.8 kmh SSW 2.9 mph4.7 kmh 29.94 in1013.9 mb 0.13 in3.3 mm 0.00 in0.0 mm 0.46 in11.7 mm
04:40 AM 62.6°F17.0°C 62.6°F17.0°C 97% 2.0 mph SSW3.2 kmh SSW 2.9 mph4.7 kmh 29.94 in1013.9 mb 0.09 in2.3 mm 0.00 in0.0 mm 0.46 in11.7 mm
04:45 AM 62.6°F17.0°C 62.6°F17.0°C 97% 0.9 mph S1.4 kmh S 2.5 mph4.0 kmh 29.94 in1013.9 mb 0.04 in1.0 mm 0.00 in0.0 mm 0.46 in11.7 mm
04:50 AM 62.6°F17.0°C 62.6°F17.0°C 97% 1.6 mph SSW2.6 kmh SSW 2.5 mph4.0 kmh 29.94 in1013.9 mb 0.04 in1.0 mm 0.00 in0.0 mm 0.46 in11.7 mm
04:55 AM 62.4°F16.9°C 62.6°F17.0°C 97% 1.3 mph SSW2.1 kmh SSW 3.1 mph5.0 kmh 29.91 in1012.9 mb 0.04 in1.0 mm 0.00 in0.0 mm 0.46 in11.7 mm
05:00 AM 62.4°F16.9°C 62.6°F17.0°C 97% 2.2 mph SSW3.5 kmh SSW 3.1 mph5.0 kmh 29.91 in1012.9 mb 0.04 in1.0 mm 0.00 in0.0 mm 0.46 in11.7 mm
05:05 AM 62.4°F16.9°C 62.6°F17.0°C 97% 2.0 mph S3.2 kmh S 2.2 mph3.5 kmh 29.91 in1012.9 mb 0.04 in1.0 mm 0.00 in0.0 mm 0.46 in11.7 mm
05:10 AM 62.4°F16.9°C 62.6°F17.0°C 97% 1.6 mph SSE2.6 kmh SSE 2.2 mph3.5 kmh 29.94 in1013.9 mb 0.08 in2.0 mm 0.48 in12.2 mm 0.50 in12.7 mm
05:15 AM 62.4°F16.9°C 62.6°F17.0°C 97% Calm Calm 2.5 mph4.0 kmh 29.94 in1013.9 mb 0.04 in1.0 mm 0.00 in0.0 mm 0.50 in12.7 mm
05:20 AM 62.2°F16.8°C 60.8°F16.0°C 97% Calm Calm 2.5 mph4.0 kmh 29.94 in1013.9 mb 0.04 in1.0 mm 0.00 in0.0 mm 0.50 in12.7 mm
05:25 AM 62.2°F16.8°C 60.8°F16.0°C 97% Calm Calm -- 29.94 in1013.9 mb 0.12 in3.0 mm 0.96 in24.4 mm 0.58 in14.7 mm
05:30 AM 62.2°F16.8°C 60.8°F16.0°C 97% Calm Calm -- 29.94 in1013.9 mb 0.12 in3.0 mm 0.00 in0.0 mm 0.58 in14.7 mm
05:35 AM 62.2°F16.8°C 60.8°F16.0°C 97% Calm Calm 1.1 mph1.8 kmh 29.94 in1013.9 mb 0.12 in3.0 mm 0.00 in0.0 mm 0.58 in14.7 mm
05:40 AM 62.1°F16.7°C 60.8°F16.0°C 97% Calm Calm 1.1 mph1.8 kmh 29.94 in1013.9 mb 0.12 in3.0 mm 0.00 in0.0 mm 0.58 in14.7 mm
05:45 AM 62.1°F16.7°C 60.8°F16.0°C 97% Calm Calm -- 29.94 in1013.9 mb 0.12 in3.0 mm 0.00 in0.0 mm 0.58 in14.7 mm
05:50 AM 62.1°F16.7°C 60.8°F16.0°C 97% Calm Calm -- 29.94 in1013.9 mb 0.12 in3.0 mm 0.00 in0.0 mm 0.58 in14.7 mm
05:55 AM 61.9°F16.6°C 60.8°F16.0°C 97% Calm Calm 1.1 mph1.8 kmh 29.94 in1013.9 mb 0.12 in3.0 mm 0.00 in0.0 mm 0.58 in14.7 mm
06:00 AM 61.9°F16.6°C 60.8°F16.0°C 97% Calm Calm 1.1 mph1.8 kmh 29.94 in1013.9 mb 0.12 in3.0 mm 0.00 in0.0 mm 0.58 in14.7 mm
06:05 AM 61.9°F16.6°C 60.8°F16.0°C 97% Calm Calm 1.1 mph1.8 kmh 29.94 in1013.9 mb 0.08 in2.0 mm 0.00 in0.0 mm 0.58 in14.7 mm
06:10 AM 61.9°F16.6°C 60.8°F16.0°C 97% 1.6 mph SE2.6 kmh SE 2.2 mph3.5 kmh 29.94 in1013.9 mb 0.08 in2.0 mm 0.00 in0.0 mm 0.58 in14.7 mm
06:15 AM 62.1°F16.7°C 60.8°F16.0°C 97% Calm Calm 2.2 mph3.5 kmh 29.94 in1013.9 mb 0.08 in2.0 mm 0.00 in0.0 mm 0.58 in14.7 mm
06:20 AM 62.1°F16.7°C 60.8°F16.0°C 97% Calm Calm 2.2 mph3.5 kmh 29.94 in1013.9 mb 0.08 in2.0 mm 0.00 in0.0 mm 0.58 in14.7 mm
06:25 AM 62.1°F16.7°C 60.8°F16.0°C 97% Calm Calm -- 29.94 in1013.9 mb 0.00 in0.0 mm 0.00 in0.0 mm 0.58 in14.7 mm
06:30 AM 62.1°F16.7°C 60.8°F16.0°C 97% Calm Calm -- 29.94 in1013.9 mb 0.00 in0.0 mm 0.00 in0.0 mm 0.58 in14.7 mm
06:35 AM 62.1°F16.7°C 60.8°F16.0°C 97% Calm Calm -- 29.94 in1013.9 mb 0.00 in0.0 mm 0.00 in0.0 mm 0.58 in14.7 mm
06:40 AM 62.1°F16.7°C 60.8°F16.0°C 97% Calm Calm -- 29.94 in1013.9 mb 0.00 in0.0 mm 0.00 in0.0 mm 0.58 in14.7 mm
06:45 AM 62.1°F16.7°C 60.8°F16.0°C 97% Calm Calm -- 29.94 in1013.9 mb 0.04 in1.0 mm 0.48 in12.2 mm 0.62 in15.7 mm
06:50 AM 62.1°F16.7°C 60.8°F16.0°C 97% Calm Calm -- 29.94 in1013.9 mb 0.04 in1.0 mm 0.00 in0.0 mm 0.62 in15.7 mm
06:55 AM 62.1°F16.7°C 60.8°F16.0°C 97% Calm Calm -- 29.94 in1013.9 mb 0.04 in1.0 mm 0.00 in0.0 mm 0.62 in15.7 mm
07:00 AM 62.1°F16.7°C 60.8°F16.0°C 97% Calm Calm -- 29.94 in1013.9 mb 0.08 in2.0 mm 0.04 in1.0 mm 0.66 in16.8 mm
07:05 AM 62.1°F16.7°C 60.8°F16.0°C 97% Calm Calm -- 29.94 in1013.9 mb 0.08 in2.0 mm 0.00 in0.0 mm 0.66 in16.8 mm
07:10 AM 62.1°F16.7°C 60.8°F16.0°C 97% Calm Calm -- 29.94 in1013.9 mb 0.08 in2.0 mm 0.00 in0.0 mm 0.66 in16.8 mm
07:15 AM 62.1°F16.7°C 60.8°F16.0°C 97% Calm Calm -- 29.94 in1013.9 mb 0.08 in2.0 mm 0.00 in0.0 mm 0.66 in16.8 mm
07:20 AM 62.1°F16.7°C 60.8°F16.0°C 97% Calm Calm -- 29.94 in1013.9 mb 0.08 in2.0 mm 0.00 in0.0 mm 0.66 in16.8 mm
07:25 AM 62.1°F16.7°C 60.8°F16.0°C 97% Calm Calm -- 29.94 in1013.9 mb 0.08 in2.0 mm 0.00 in0.0 mm 0.66 in16.8 mm
07:30 AM 62.1°F16.7°C 60.8°F16.0°C 97% Calm Calm -- 29.94 in1013.9 mb 0.08 in2.0 mm 0.00 in0.0 mm 0.66 in16.8 mm
07:35 AM 62.2°F16.8°C 60.8°F16.0°C 97% Calm Calm -- 29.94 in1013.9 mb 0.08 in2.0 mm 0.00 in0.0 mm 0.66 in16.8 mm
07:40 AM 62.2°F16.8°C 60.8°F16.0°C 97% 0.9 mph SSE1.4 kmh SSE 1.6 mph2.6 kmh 29.97 in1014.9 mb 0.08 in2.0 mm 0.00 in0.0 mm 0.66 in16.8 mm
07:45 AM 62.2°F16.8°C 62.6°F17.0°C 98% 1.6 mph SSE2.6 kmh SSE 1.6 mph2.6 kmh 29.97 in1014.9 mb 0.04 in1.0 mm 0.00 in0.0 mm 0.66 in16.8 mm
07:50 AM 62.4°F16.9°C 62.6°F17.0°C 98% Calm Calm 2.5 mph4.0 kmh 29.97 in1014.9 mb 0.04 in1.0 mm 0.00 in0.0 mm 0.66 in16.8 mm
07:55 AM 62.4°F16.9°C 62.6°F17.0°C 98% 1.3 mph SSE2.1 kmh SSE 2.5 mph4.0 kmh 29.97 in1014.9 mb 0.04 in1.0 mm 0.00 in0.0 mm 0.66 in16.8 mm
08:00 AM 62.6°F17.0°C 62.6°F17.0°C 98% 1.1 mph SSE1.8 kmh SSE 2.0 mph3.2 kmh 29.97 in1014.9 mb 0.00 in0.0 mm 0.00 in0.0 mm 0.66 in16.8 mm
08:05 AM 62.6°F17.0°C 62.6°F17.0°C 98% 1.3 mph SSE2.1 kmh SSE 2.0 mph3.2 kmh 29.97 in1014.9 mb 0.00 in0.0 mm 0.00 in0.0 mm 0.66 in16.8 mm
08:10 AM 62.6°F17.0°C 62.6°F17.0°C 98% 1.3 mph SSE2.1 kmh SSE 2.2 mph3.5 kmh 29.97 in1014.9 mb 0.00 in0.0 mm 0.00 in0.0 mm 0.66 in16.8 mm
08:15 AM 62.6°F17.0°C 62.6°F17.0°C 98% Calm Calm 2.2 mph3.5 kmh 29.97 in1014.9 mb 0.00 in0.0 mm 0.00 in0.0 mm 0.66 in16.8 mm
08:20 AM 62.8°F17.1°C 62.6°F17.0°C 98% 1.3 mph S2.1 kmh S 1.6 mph2.6 kmh 29.97 in1014.9 mb 0.00 in0.0 mm 0.00 in0.0 mm 0.66 in16.8 mm
08:25 AM 62.8°F17.1°C 62.6°F17.0°C 98% 1.1 mph SSW1.8 kmh SSW 1.6 mph2.6 kmh 30.00 in1015.9 mb 0.00 in0.0 mm 0.00 in0.0 mm 0.66 in16.8 mm
08:30 AM 63.0°F17.2°C 62.6°F17.0°C 98% Calm Calm 2.0 mph3.2 kmh 30.00 in1015.9 mb 0.00 in0.0 mm 0.00 in0.0 mm 0.66 in16.8 mm
08:35 AM 63.0°F17.2°C 62.6°F17.0°C 98% 1.6 mph SSE2.6 kmh SSE 2.2 mph3.5 kmh 30.00 in1015.9 mb 0.00 in0.0 mm 0.00 in0.0 mm 0.66 in16.8 mm
08:40 AM 63.1°F17.3°C 62.6°F17.0°C 98% 2.0 mph SSE3.2 kmh SSE 2.5 mph4.0 kmh 30.00 in1015.9 mb 0.00 in0.0 mm 0.00 in0.0 mm 0.66 in16.8 mm
08:45 AM 63.5°F17.5°C 64.4°F18.0°C 98% Calm Calm 3.1 mph5.0 kmh 30.00 in1015.9 mb 0.00 in0.0 mm 0.00 in0.0 mm 0.66 in16.8 mm
08:50 AM 63.9°F17.7°C 64.4°F18.0°C 98% Calm Calm 3.1 mph5.0 kmh 30.00 in1015.9 mb 0.00 in0.0 mm 0.00 in0.0 mm 0.66 in16.8 mm
08:55 AM 63.9°F17.7°C 64.4°F18.0°C 98% Calm Calm 0.9 mph1.4 kmh 30.00 in1015.9 mb 0.00 in0.0 mm 0.00 in0.0 mm 0.66 in16.8 mm
09:00 AM 63.9°F17.7°C 64.4°F18.0°C 98% Calm Calm -- 30.00 in1015.9 mb 0.00 in0.0 mm 0.00 in0.0 mm 0.66 in16.8 mm
09:05 AM 63.7°F17.6°C 64.4°F18.0°C 98% 0.9 mph 1.4 kmh -- 30.00 in1015.9 mb 0.04 in1.0 mm 0.48 in12.2 mm 0.70 in17.8 mm
09:10 AM 63.5°F17.5°C 62.6°F17.0°C 97% 1.1 mph SSE1.8 kmh SSE 2.0 mph3.2 kmh 30.00 in1015.9 mb 0.09 in2.3 mm 0.60 in15.2 mm 0.75 in19.1 mm
09:15 AM 63.5°F17.5°C 62.6°F17.0°C 97% Calm Calm 2.7 mph4.3 kmh 30.00 in1015.9 mb 0.09 in2.3 mm 0.00 in0.0 mm 0.75 in19.1 mm
09:20 AM 63.5°F17.5°C 64.4°F18.0°C 98% Calm Calm 2.7 mph4.3 kmh 30.00 in1015.9 mb 0.09 in2.3 mm 0.00 in0.0 mm 0.75 in19.1 mm
09:25 AM 64.2°F17.9°C 64.4°F18.0°C 98% Calm Calm 1.6 mph2.6 kmh 30.00 in1015.9 mb 0.09 in2.3 mm 0.00 in0.0 mm 0.75 in19.1 mm
09:30 AM 65.5°F18.6°C 66.2°F19.0°C 98% 1.1 mph SSE1.8 kmh SSE 2.9 mph4.7 kmh 30.00 in1015.9 mb 0.09 in2.3 mm 0.00 in0.0 mm 0.75 in19.1 mm
09:35 AM 66.2°F19.0°C 66.2°F19.0°C 97% 2.0 mph S3.2 kmh S 3.1 mph5.0 kmh 30.00 in1015.9 mb 0.09 in2.3 mm 0.00 in0.0 mm 0.75 in19.1 mm
09:40 AM 66.9°F19.4°C 66.2°F19.0°C 96% 2.2 mph S3.5 kmh S 3.6 mph5.8 kmh 30.00 in1015.9 mb 0.09 in2.3 mm 0.00 in0.0 mm 0.75 in19.1 mm
09:45 AM 68.0°F20.0°C 66.2°F19.0°C 92% 2.2 mph S3.5 kmh S 3.6 mph5.8 kmh 30.00 in1015.9 mb 0.09 in2.3 mm 0.00 in0.0 mm 0.75 in19.1 mm
09:50 AM 68.5°F20.3°C 66.2°F19.0°C 90% 2.2 mph S3.5 kmh S 3.6 mph5.8 kmh 30.00 in1015.9 mb 0.09 in2.3 mm 0.00 in0.0 mm 0.75 in19.1 mm
09:55 AM 69.1°F20.6°C 66.2°F19.0°C 90% 1.1 mph SSW1.8 kmh SSW 3.1 mph5.0 kmh 30.00 in1015.9 mb 0.09 in2.3 mm 0.00 in0.0 mm 0.75 in19.1 mm
10:00 AM 68.5°F20.3°C 64.4°F18.0°C 87% Calm Calm 2.9 mph4.7 kmh 30.00 in1015.9 mb 0.09 in2.3 mm 0.00 in0.0 mm 0.75 in19.1 mm
10:05 AM 68.4°F20.2°C 66.2°F19.0°C 89% Calm Calm 2.9 mph4.7 kmh 30.00 in1015.9 mb 0.05 in1.3 mm 0.00 in0.0 mm 0.75 in19.1 mm
10:10 AM 68.7°F20.4°C 66.2°F19.0°C 91% Calm Calm 1.6 mph2.6 kmh 30.00 in1015.9 mb 0.00 in0.0 mm 0.00 in0.0 mm 0.75 in19.1 mm
10:15 AM 68.9°F20.5°C 66.2°F19.0°C 89% 1.3 mph SSW2.1 kmh SSW 2.5 mph4.0 kmh 30.00 in1015.9 mb 0.00 in0.0 mm 0.00 in0.0 mm 0.75 in19.1 mm
10:20 AM 68.7°F20.4°C 64.4°F18.0°C 87% 2.5 mph SSW4.0 kmh SSW 3.1 mph5.0 kmh 30.00 in1015.9 mb 0.00 in0.0 mm 0.00 in0.0 mm 0.75 in19.1 mm
10:25 AM 68.9°F20.5°C 66.2°F19.0°C 88% 1.1 mph S1.8 kmh S 3.1 mph5.0 kmh 30.00 in1015.9 mb 0.00 in0.0 mm 0.00 in0.0 mm 0.75 in19.1 mm
10:30 AM 69.8°F21.0°C 68.0°F20.0°C 91% Calm Calm 2.2 mph3.5 kmh 30.00 in1015.9 mb 0.00 in0.0 mm 0.00 in0.0 mm 0.75 in19.1 mm
10:35 AM 70.2°F21.2°C 68.0°F20.0°C 91% Calm Calm 1.6 mph2.6 kmh 30.00 in1015.9 mb 0.00 in0.0 mm 0.00 in0.0 mm 0.75 in19.1 mm
10:40 AM 70.5°F21.4°C 66.2°F19.0°C 88% 1.1 mph SW1.8 kmh SW 1.6 mph2.6 kmh 30.00 in1015.9 mb 0.00 in0.0 mm 0.00 in0.0 mm 0.75 in19.1 mm
10:45 AM 71.2°F21.8°C 68.0°F20.0°C 88% 2.2 mph WSW3.5 kmh WSW 2.9 mph4.7 kmh 30.00 in1015.9 mb 0.00 in0.0 mm 0.00 in0.0 mm 0.75 in19.1 mm
10:50 AM 71.6°F22.0°C 68.0°F20.0°C 88% Calm Calm 2.9 mph4.7 kmh 30.00 in1015.9 mb 0.00 in0.0 mm 0.00 in0.0 mm 0.75 in19.1 mm
10:55 AM 72.3°F22.4°C 68.0°F20.0°C 87% 1.1 mph WSW1.8 kmh WSW 2.5 mph4.0 kmh 29.97 in1014.9 mb 0.00 in0.0 mm 0.00 in0.0 mm 0.75 in19.1 mm
11:00 AM 72.5°F22.5°C 66.2°F19.0°C 81% 1.1 mph SW1.8 kmh SW 2.5 mph4.0 kmh 29.97 in1014.9 mb 0.00 in0.0 mm 0.00 in0.0 mm 0.75 in19.1 mm
11:05 AM 72.1°F22.3°C 66.2°F19.0°C 82% 0.9 mph SW1.4 kmh SW 2.2 mph3.5 kmh 29.97 in1014.9 mb 0.00 in0.0 mm 0.00 in0.0 mm 0.75 in19.1 mm
11:10 AM 71.8°F22.1°C 66.2°F19.0°C 82% 0.9 mph SW1.4 kmh SW 1.1 mph1.8 kmh 30.00 in1015.9 mb 0.00 in0.0 mm 0.00 in0.0 mm 0.75 in19.1 mm
11:15 AM 71.6°F22.0°C 66.2°F19.0°C 84% Calm Calm 1.1 mph1.8 kmh 30.00 in1015.9 mb 0.00 in0.0 mm 0.00 in0.0 mm 0.75 in19.1 mm
11:20 AM 71.6°F22.0°C 66.2°F19.0°C 82% 0.9 mph SSW1.4 kmh SSW 2.2 mph3.5 kmh 30.00 in1015.9 mb 0.00 in0.0 mm 0.00 in0.0 mm 0.75 in19.1 mm
11:25 AM 71.8°F22.1°C 66.2°F19.0°C 82% 1.3 mph SW2.1 kmh SW 2.7 mph4.3 kmh 29.97 in1014.9 mb 0.00 in0.0 mm 0.00 in0.0 mm 0.75 in19.1 mm
11:30 AM 72.1°F22.3°C 66.2°F19.0°C 83% 2.2 mph WSW3.5 kmh WSW 4.0 mph6.4 kmh 29.97 in1014.9 mb 0.00 in0.0 mm 0.00 in0.0 mm 0.75 in19.1 mm
11:35 AM 72.1°F22.3°C 66.2°F19.0°C 81% 2.0 mph WSW3.2 kmh WSW 4.0 mph6.4 kmh 29.97 in1014.9 mb 0.00 in0.0 mm 0.00 in0.0 mm 0.75 in19.1 mm
11:40 AM 72.1°F22.3°C 66.2°F19.0°C 82% 1.3 mph WSW2.1 kmh WSW 3.4 mph5.5 kmh 30.00 in1015.9 mb 0.00 in0.0 mm 0.00 in0.0 mm 0.75 in19.1 mm
11:45 AM 72.5°F22.5°C 66.2°F19.0°C 81% 1.3 mph WSW2.1 kmh WSW 3.1 mph5.0 kmh 30.00 in1015.9 mb 0.00 in0.0 mm 0.00 in0.0 mm 0.75 in19.1 mm
11:50 AM 73.2°F22.9°C 68.0°F20.0°C 82% 2.0 mph WSW3.2 kmh WSW 2.7 mph4.3 kmh 30.00 in1015.9 mb 0.00 in0.0 mm 0.00 in0.0 mm 0.75 in19.1 mm
11:55 AM 73.4°F23.0°C 68.0°F20.0°C 80% 0.9 mph WSW1.4 kmh WSW 3.4 mph5.5 kmh 29.97 in1014.9 mb 0.00 in0.0 mm 0.00 in0.0 mm 0.75 in19.1 mm
12:00 PM 73.6°F23.1°C 68.0°F20.0°C 81% 1.1 mph W1.8 kmh W 3.4 mph5.5 kmh 29.97 in1014.9 mb 0.00 in0.0 mm 0.00 in0.0 mm 0.75 in19.1 mm
12:05 PM 74.7°F23.7°C 68.0°F20.0°C 81% Calm Calm 2.7 mph4.3 kmh 29.97 in1014.9 mb 0.00 in0.0 mm 0.00 in0.0 mm 0.75 in19.1 mm
12:10 PM 74.8°F23.8°C 68.0°F20.0°C 77% 1.3 mph WSW2.1 kmh WSW 2.9 mph4.7 kmh 29.97 in1014.9 mb 0.00 in0.0 mm 0.00 in0.0 mm 0.75 in19.1 mm
12:15 PM 75.2°F24.0°C 68.0°F20.0°C 75% 0.9 mph WSW1.4 kmh WSW 3.4 mph5.5 kmh 29.97 in1014.9 mb 0.00 in0.0 mm 0.00 in0.0 mm 0.75 in19.1 mm
12:20 PM 76.1°F24.5°C 68.0°F20.0°C 73% 2.0 mph WSW3.2 kmh WSW 3.8 mph6.1 kmh 29.97 in1014.9 mb 0.00 in0.0 mm 0.00 in0.0 mm 0.75 in19.1 mm
12:25 PM 76.5°F24.7°C 68.0°F20.0°C 73% 1.3 mph WSW2.1 kmh WSW 3.8 mph6.1 kmh 29.97 in1014.9 mb 0.00 in0.0 mm 0.00 in0.0 mm 0.75 in19.1 mm
12:30 PM 77.0°F25.0°C 68.0°F20.0°C 71% 1.1 mph SW1.8 kmh SW 3.6 mph5.8 kmh 29.97 in1014.9 mb 0.00 in0.0 mm 0.00 in0.0 mm 0.75 in19.1 mm
12:35 PM 77.4°F25.2°C 66.2°F19.0°C 67% 2.2 mph SSW3.5 kmh SSW 3.8 mph6.1 kmh 29.97 in1014.9 mb 0.00 in0.0 mm 0.00 in0.0 mm 0.75 in19.1 mm
12:40 PM 78.3°F25.7°C 66.2°F19.0°C 67% 2.2 mph SW3.5 kmh SW 3.8 mph6.1 kmh 29.94 in1013.9 mb 0.00 in0.0 mm 0.00 in0.0 mm 0.75 in19.1 mm
12:45 PM 79.0°F26.1°C 68.0°F20.0°C 69% Calm Calm 3.8 mph6.1 kmh 29.94 in1013.9 mb 0.00 in0.0 mm 0.00 in0.0 mm 0.75 in19.1 mm
12:50 PM 79.0°F26.1°C 66.2°F19.0°C 64% 1.1 mph SW1.8 kmh SW 3.1 mph5.0 kmh 29.94 in1013.9 mb 0.00 in0.0 mm 0.00 in0.0 mm 0.75 in19.1 mm
12:55 PM 78.4°F25.8°C 66.2°F19.0°C 66% 1.1 mph SW1.8 kmh SW 2.7 mph4.3 kmh 29.94 in1013.9 mb 0.00 in0.0 mm 0.00 in0.0 mm 0.75 in19.1 mm
01:00 PM 78.8°F26.0°C 68.0°F20.0°C 67% 2.5 mph W4.0 kmh W 3.4 mph5.5 kmh 29.94 in1013.9 mb 0.00 in0.0 mm 0.00 in0.0 mm 0.75 in19.1 mm
01:05 PM 79.5°F26.4°C 66.2°F19.0°C 64% 1.6 mph W2.6 kmh W 4.0 mph6.4 kmh 29.94 in1013.9 mb 0.00 in0.0 mm 0.00 in0.0 mm 0.75 in19.1 mm
01:10 PM 79.9°F26.6°C 68.0°F20.0°C 64% 2.0 mph W3.2 kmh W 4.0 mph6.4 kmh 29.94 in1013.9 mb 0.00 in0.0 mm 0.00 in0.0 mm 0.75 in19.1 mm
01:15 PM 79.9°F26.6°C 66.2°F19.0°C 62% 3.1 mph W5.0 kmh W 4.9 mph7.9 kmh 29.94 in1013.9 mb 0.00 in0.0 mm 0.00 in0.0 mm 0.75 in19.1 mm
01:20 PM 79.5°F26.4°C 66.2°F19.0°C 63% 0.9 mph W1.4 kmh W 4.9 mph7.9 kmh 29.94 in1013.9 mb 0.00 in0.0 mm 0.00 in0.0 mm 0.75 in19.1 mm
01:25 PM 80.1°F26.7°C 66.2°F19.0°C 63% 0.9 mph W1.4 kmh W 3.4 mph5.5 kmh 29.94 in1013.9 mb 0.00 in0.0 mm 0.00 in0.0 mm 0.75 in19.1 mm
01:30 PM 80.8°F27.1°C 66.2°F19.0°C 59% 2.2 mph W3.5 kmh W 3.4 mph5.5 kmh 29.94 in1013.9 mb 0.00 in0.0 mm 0.00 in0.0 mm 0.75 in19.1 mm
01:35 PM 79.9°F26.6°C 64.4°F18.0°C 58% 2.2 mph W3.5 kmh W 2.5 mph4.0 kmh 29.94 in1013.9 mb 0.00 in0.0 mm 0.00 in0.0 mm 0.75 in19.1 mm
01:40 PM 79.0°F26.1°C 64.4°F18.0°C 61% 2.2 mph W3.5 kmh W 2.5 mph4.0 kmh 29.91 in1012.9 mb 0.00 in0.0 mm 0.00 in0.0 mm 0.75 in19.1 mm
01:45 PM 78.6°F25.9°C 66.2°F19.0°C 63% 2.2 mph W3.5 kmh W 2.5 mph4.0 kmh 29.91 in1012.9 mb 0.00 in0.0 mm 0.00 in0.0 mm 0.75 in19.1 mm
01:50 PM 78.4°F25.8°C 64.4°F18.0°C 63% 2.2 mph W3.5 kmh W 2.5 mph4.0 kmh 29.91 in1012.9 mb 0.00 in0.0 mm 0.00 in0.0 mm 0.75 in19.1 mm
01:55 PM 77.9°F25.5°C 64.4°F18.0°C 63% 2.0 mph SW3.2 kmh SW 2.5 mph4.0 kmh 29.94 in1013.9 mb 0.00 in0.0 mm 0.00 in0.0 mm 0.75 in19.1 mm
03:45 PM 81.9°F27.7°C 66.2°F19.0°C 57% 2.2 mph WSW3.5 kmh WSW 3.4 mph5.5 kmh 29.94 in1013.9 mb 0.00 in0.0 mm 0.00 in0.0 mm 0.75 in19.1 mm
03:50 PM 82.4°F28.0°C 66.2°F19.0°C 58% 1.6 mph WSW2.6 kmh WSW 3.4 mph5.5 kmh 29.94 in1013.9 mb 0.00 in0.0 mm 0.00 in0.0 mm 0.75 in19.1 mm
03:55 PM 82.6°F28.1°C 64.4°F18.0°C 52% 2.5 mph WSW4.0 kmh WSW 5.6 mph9.0 kmh 29.91 in1012.9 mb 0.00 in0.0 mm 0.00 in0.0 mm 0.75 in19.1 mm
04:00 PM 82.2°F27.9°C 64.4°F18.0°C 55% 2.5 mph WSW4.0 kmh WSW 5.6 mph9.0 kmh 29.91 in1012.9 mb 0.00 in0.0 mm 0.00 in0.0 mm 0.75 in19.1 mm
04:05 PM 82.4°F28.0°C 64.4°F18.0°C 54% 2.9 mph W4.7 kmh W 3.8 mph6.1 kmh 29.91 in1012.9 mb 0.00 in0.0 mm 0.00 in0.0 mm 0.75 in19.1 mm
04:10 PM 82.9°F28.3°C 66.2°F19.0°C 54% 1.6 mph W2.6 kmh W 3.8 mph6.1 kmh 29.91 in1012.9 mb 0.00 in0.0 mm 0.00 in0.0 mm 0.75 in19.1 mm
04:15 PM 82.8°F28.2°C 64.4°F18.0°C 53% 2.0 mph WSW3.2 kmh WSW 4.7 mph7.6 kmh 29.91 in1012.9 mb 0.00 in0.0 mm 0.00 in0.0 mm 0.75 in19.1 mm
04:20 PM 81.5°F27.5°C 62.6°F17.0°C 52% 2.5 mph WSW4.0 kmh WSW 4.7 mph7.6 kmh 29.91 in1012.9 mb 0.00 in0.0 mm 0.00 in0.0 mm 0.75 in19.1 mm
04:25 PM 81.5°F27.5°C 62.6°F17.0°C 52% 2.0 mph W3.2 kmh W 4.3 mph6.9 kmh 29.91 in1012.9 mb 0.00 in0.0 mm 0.00 in0.0 mm 0.75 in19.1 mm
04:30 PM 81.1°F27.3°C 62.6°F17.0°C 52% 3.8 mph WNW6.1 kmh WNW 4.3 mph6.9 kmh 29.91 in1012.9 mb 0.00 in0.0 mm 0.00 in0.0 mm 0.75 in19.1 mm
04:35 PM 81.5°F27.5°C 62.6°F17.0°C 52% 2.2 mph WNW3.5 kmh WNW 4.3 mph6.9 kmh 29.91 in1012.9 mb 0.00 in0.0 mm 0.00 in0.0 mm 0.75 in19.1 mm
04:40 PM 81.0°F27.2°C 62.6°F17.0°C 53% 4.5 mph W7.2 kmh W 4.7 mph7.6 kmh 29.91 in1012.9 mb 0.00 in0.0 mm 0.00 in0.0 mm 0.75 in19.1 mm
04:45 PM 81.0°F27.2°C 62.6°F17.0°C 52% 6.0 mph W9.7 kmh W 7.8 mph12.6 kmh 29.91 in1012.9 mb 0.00 in0.0 mm 0.00 in0.0 mm 0.75 in19.1 mm
04:50 PM 80.6°F27.0°C 62.6°F17.0°C 53% 2.7 mph WNW4.3 kmh WNW 7.8 mph12.6 kmh 29.91 in1012.9 mb 0.00 in0.0 mm 0.00 in0.0 mm 0.75 in19.1 mm
04:55 PM 80.6°F27.0°C 62.6°F17.0°C 53% 3.6 mph WNW5.8 kmh WNW 6.3 mph10.1 kmh 29.91 in1012.9 mb 0.00 in0.0 mm 0.00 in0.0 mm 0.75 in19.1 mm
05:00 PM 80.2°F26.8°C 62.6°F17.0°C 54% 2.7 mph W4.3 kmh W 6.3 mph10.1 kmh 29.91 in1012.9 mb 0.00 in0.0 mm 0.00 in0.0 mm 0.75 in19.1 mm
05:05 PM 79.9°F26.6°C 62.6°F17.0°C 54% 4.7 mph W7.6 kmh W 5.6 mph9.0 kmh 29.91 in1012.9 mb 0.00 in0.0 mm 0.00 in0.0 mm 0.75 in19.1 mm
05:10 PM 79.5°F26.4°C 62.6°F17.0°C 55% 2.7 mph WSW4.3 kmh WSW 4.0 mph6.4 kmh 29.91 in1012.9 mb 0.00 in0.0 mm 0.00 in0.0 mm 0.75 in19.1 mm
05:15 PM 79.5°F26.4°C 62.6°F17.0°C 57% 2.5 mph WSW4.0 kmh WSW 4.0 mph6.4 kmh 29.91 in1012.9 mb 0.00 in0.0 mm 0.00 in0.0 mm 0.75 in19.1 mm
05:20 PM 79.3°F26.3°C 64.4°F18.0°C 58% 2.9 mph W4.7 kmh W 4.3 mph6.9 kmh 29.91 in1012.9 mb 0.00 in0.0 mm 0.00 in0.0 mm 0.75 in19.1 mm
05:25 PM 79.3°F26.3°C 64.4°F18.0°C 58% 3.1 mph WNW5.0 kmh WNW 4.9 mph7.9 kmh 29.91 in1012.9 mb 0.00 in0.0 mm 0.00 in0.0 mm 0.75 in19.1 mm
05:30 PM 79.3°F26.3°C 64.4°F18.0°C 59% 2.7 mph W4.3 kmh W 4.9 mph7.9 kmh 29.91 in1012.9 mb 0.00 in0.0 mm 0.00 in0.0 mm 0.75 in19.1 mm
05:35 PM 79.3°F26.3°C 64.4°F18.0°C 59% 2.5 mph WSW4.0 kmh WSW 4.9 mph7.9 kmh 29.91 in1012.9 mb 0.00 in0.0 mm 0.00 in0.0 mm 0.75 in19.1 mm
05:40 PM 79.2°F26.2°C 64.4°F18.0°C 58% 2.9 mph W4.7 kmh W 3.8 mph6.1 kmh 29.88 in1011.9 mb 0.00 in0.0 mm 0.00 in0.0 mm 0.75 in19.1 mm
05:45 PM 79.2°F26.2°C 64.4°F18.0°C 58% 3.8 mph WNW6.1 kmh WNW 4.7 mph7.6 kmh 29.88 in1011.9 mb 0.00 in0.0 mm 0.00 in0.0 mm 0.75 in19.1 mm
05:50 PM 78.8°F26.0°C 64.4°F18.0°C 59% 1.1 mph W1.8 kmh W 4.9 mph7.9 kmh 29.88 in1011.9 mb 0.00 in0.0 mm 0.00 in0.0 mm 0.75 in19.1 mm
05:55 PM 78.6°F25.9°C 62.6°F17.0°C 58% 2.2 mph WSW3.5 kmh WSW 4.9 mph7.9 kmh 29.91 in1012.9 mb 0.00 in0.0 mm 0.00 in0.0 mm 0.75 in19.1 mm
06:00 PM 78.4°F25.8°C 62.6°F17.0°C 58% 3.1 mph W5.0 kmh W 5.6 mph9.0 kmh 29.91 in1012.9 mb 0.00 in0.0 mm 0.00 in0.0 mm 0.75 in19.1 mm
06:05 PM 78.4°F25.8°C 62.6°F17.0°C 58% 3.6 mph WNW5.8 kmh WNW 5.6 mph9.0 kmh 29.91 in1012.9 mb 0.00 in0.0 mm 0.00 in0.0 mm 0.75 in19.1 mm
06:10 PM 78.4°F25.8°C 62.6°F17.0°C 57% 6.5 mph NW10.5 kmh NW 10.3 mph16.6 kmh 29.91 in1012.9 mb 0.00 in0.0 mm 0.00 in0.0 mm 0.75 in19.1 mm
06:15 PM 78.4°F25.8°C 62.6°F17.0°C 58% 5.6 mph NW9.0 kmh NW 10.3 mph16.6 kmh 29.91 in1012.9 mb 0.00 in0.0 mm 0.00 in0.0 mm 0.75 in19.1 mm
06:20 PM 78.4°F25.8°C 62.6°F17.0°C 58% 2.7 mph WNW4.3 kmh WNW 6.3 mph10.1 kmh 29.91 in1012.9 mb 0.00 in0.0 mm 0.00 in0.0 mm 0.75 in19.1 mm
06:25 PM 78.6°F25.9°C 62.6°F17.0°C 56% 9.2 mph WNW14.8 kmh WNW 11.9 mph19.2 kmh 29.94 in1013.9 mb 0.00 in0.0 mm 0.00 in0.0 mm 0.75 in19.1 mm
06:30 PM 78.4°F25.8°C 60.8°F16.0°C 56% 4.3 mph WNW6.9 kmh WNW 11.9 mph19.2 kmh 29.94 in1013.9 mb 0.00 in0.0 mm 0.00 in0.0 mm 0.75 in19.1 mm
06:35 PM 78.3°F25.7°C 62.6°F17.0°C 57% 4.5 mph WNW7.2 kmh WNW 10.7 mph17.2 kmh 29.94 in1013.9 mb 0.00 in0.0 mm 0.00 in0.0 mm 0.75 in19.1 mm
06:40 PM 77.9°F25.5°C 60.8°F16.0°C 56% 4.3 mph WNW6.9 kmh WNW 10.5 mph16.9 kmh 29.94 in1013.9 mb 0.00 in0.0 mm 0.00 in0.0 mm 0.75 in19.1 mm
06:45 PM 76.5°F24.7°C 59.0°F15.0°C 55% 1.6 mph NW2.6 kmh NW 10.5 mph16.9 kmh 29.94 in1013.9 mb 0.00 in0.0 mm 0.00 in0.0 mm 0.75 in19.1 mm
06:50 PM 74.5°F23.6°C 59.0°F15.0°C 57% 2.2 mph NNW3.5 kmh NNW 3.4 mph5.5 kmh 29.94 in1013.9 mb 0.00 in0.0 mm 0.00 in0.0 mm 0.75 in19.1 mm
06:55 PM 73.4°F23.0°C 57.2°F14.0°C 58% 1.3 mph NNW2.1 kmh NNW 3.6 mph5.8 kmh 29.94 in1013.9 mb 0.00 in0.0 mm 0.00 in0.0 mm 0.75 in19.1 mm
07:00 PM 72.1°F22.3°C 57.2°F14.0°C 60% 1.1 mph N1.8 kmh N 3.6 mph5.8 kmh 29.94 in1013.9 mb 0.00 in0.0 mm 0.00 in0.0 mm 0.75 in19.1 mm
07:05 PM 71.4°F21.9°C 57.2°F14.0°C 62% Calm Calm 2.0 mph3.2 kmh 29.94 in1013.9 mb 0.00 in0.0 mm 0.00 in0.0 mm 0.75 in19.1 mm
07:10 PM 70.9°F21.6°C 59.0°F15.0°C 64% Calm Calm 1.3 mph2.1 kmh 29.97 in1014.9 mb 0.00 in0.0 mm 0.00 in0.0 mm 0.75 in19.1 mm
07:15 PM 70.7°F21.5°C 59.0°F15.0°C 65% 1.6 mph NE2.6 kmh NE 2.9 mph4.7 kmh 29.97 in1014.9 mb 0.00 in0.0 mm 0.00 in0.0 mm 0.75 in19.1 mm
07:20 PM 70.5°F21.4°C 59.0°F15.0°C 66% Calm Calm 2.9 mph4.7 kmh 29.97 in1014.9 mb 0.00 in0.0 mm 0.00 in0.0 mm 0.75 in19.1 mm
07:25 PM 70.3°F21.3°C 59.0°F15.0°C 66% Calm Calm 2.9 mph4.7 kmh 29.91 in1012.9 mb 0.00 in0.0 mm 0.00 in0.0 mm 0.75 in19.1 mm
07:30 PM 70.2°F21.2°C 59.0°F15.0°C 66% 1.3 mph ESE2.1 kmh ESE 4.0 mph6.4 kmh 29.91 in1012.9 mb 0.00 in0.0 mm 0.00 in0.0 mm 0.75 in19.1 mm
07:35 PM 69.8°F21.0°C 59.0°F15.0°C 67% 2.0 mph E3.2 kmh E 4.0 mph6.4 kmh 29.91 in1012.9 mb 0.00 in0.0 mm 0.00 in0.0 mm 0.75 in19.1 mm
07:40 PM 69.6°F20.9°C 59.0°F15.0°C 67% 1.1 mph E1.8 kmh E 6.0 mph9.7 kmh 29.94 in1013.9 mb 0.00 in0.0 mm 0.00 in0.0 mm 0.75 in19.1 mm
07:45 PM 69.3°F20.7°C 59.0°F15.0°C 68% Calm Calm 6.0 mph9.7 kmh 29.94 in1013.9 mb 0.00 in0.0 mm 0.00 in0.0 mm 0.75 in19.1 mm
07:50 PM 69.1°F20.6°C 59.0°F15.0°C 68% Calm Calm 2.0 mph3.2 kmh 29.94 in1013.9 mb 0.00 in0.0 mm 0.00 in0.0 mm 0.75 in19.1 mm
07:55 PM 68.7°F20.4°C 57.2°F14.0°C 68% Calm Calm 2.0 mph3.2 kmh 29.94 in1013.9 mb 0.00 in0.0 mm 0.00 in0.0 mm 0.75 in19.1 mm
08:00 PM 68.5°F20.3°C 57.2°F14.0°C 69% Calm Calm 0.9 mph1.4 kmh 29.94 in1013.9 mb 0.00 in0.0 mm 0.00 in0.0 mm 0.75 in19.1 mm
08:05 PM 68.2°F20.1°C 57.2°F14.0°C 69% Calm Calm 1.3 mph2.1 kmh 29.94 in1013.9 mb 0.00 in0.0 mm 0.00 in0.0 mm 0.75 in19.1 mm
08:10 PM 68.0°F20.0°C 57.2°F14.0°C 70% Calm Calm 1.3 mph2.1 kmh 29.94 in1013.9 mb 0.00 in0.0 mm 0.00 in0.0 mm 0.75 in19.1 mm
08:15 PM 67.6°F19.8°C 59.0°F15.0°C 72% Calm Calm -- 29.94 in1013.9 mb 0.00 in0.0 mm 0.00 in0.0 mm 0.75 in19.1 mm
08:20 PM 67.3°F19.6°C 59.0°F15.0°C 72% Calm Calm -- 29.94 in1013.9 mb 0.00 in0.0 mm 0.00 in0.0 mm 0.75 in19.1 mm
08:25 PM 67.1°F19.5°C 59.0°F15.0°C 73% Calm Calm -- 29.94 in1013.9 mb 0.00 in0.0 mm 0.00 in0.0 mm 0.75 in19.1 mm
08:30 PM 66.9°F19.4°C 59.0°F15.0°C 74% Calm Calm -- 29.94 in1013.9 mb 0.00 in0.0 mm 0.00 in0.0 mm 0.75 in19.1 mm
08:35 PM 66.9°F19.4°C 59.0°F15.0°C 75% Calm Calm 2.0 mph3.2 kmh 29.94 in1013.9 mb 0.00 in0.0 mm 0.00 in0.0 mm 0.75 in19.1 mm
08:40 PM 66.7°F19.3°C 59.0°F15.0°C 75% Calm Calm 2.0 mph3.2 kmh 29.94 in1013.9 mb 0.00 in0.0 mm 0.00 in0.0 mm 0.75 in19.1 mm
08:45 PM 66.7°F19.3°C 59.0°F15.0°C 75% 1.1 mph SSE1.8 kmh SSE 2.0 mph3.2 kmh 29.94 in1013.9 mb 0.00 in0.0 mm 0.00 in0.0 mm 0.75 in19.1 mm
08:50 PM 66.6°F19.2°C 59.0°F15.0°C 75% 2.2 mph SSE3.5 kmh SSE 2.7 mph4.3 kmh 29.94 in1013.9 mb 0.00 in0.0 mm 0.00 in0.0 mm 0.75 in19.1 mm
08:55 PM 66.2°F19.0°C 59.0°F15.0°C 77% 2.0 mph S3.2 kmh S 2.7 mph4.3 kmh 29.94 in1013.9 mb 0.00 in0.0 mm 0.00 in0.0 mm 0.75 in19.1 mm
09:00 PM 66.0°F18.9°C 59.0°F15.0°C 78% 1.6 mph S2.6 kmh S 3.1 mph5.0 kmh 29.94 in1013.9 mb 0.00 in0.0 mm 0.00 in0.0 mm 0.75 in19.1 mm
09:05 PM 65.8°F18.8°C 59.0°F15.0°C 78% 3.1 mph S5.0 kmh S 3.6 mph5.8 kmh 29.94 in1013.9 mb 0.00 in0.0 mm 0.00 in0.0 mm 0.75 in19.1 mm
09:10 PM 65.7°F18.7°C 59.0°F15.0°C 78% 1.6 mph S2.6 kmh S 3.6 mph5.8 kmh 29.94 in1013.9 mb 0.00 in0.0 mm 0.00 in0.0 mm 0.75 in19.1 mm
09:15 PM 65.7°F18.7°C 59.0°F15.0°C 78% 2.0 mph S3.2 kmh S 3.6 mph5.8 kmh 29.94 in1013.9 mb 0.00 in0.0 mm 0.00 in0.0 mm 0.75 in19.1 mm
09:20 PM 65.7°F18.7°C 59.0°F15.0°C 78% 2.0 mph S3.2 kmh S 2.9 mph4.7 kmh 29.94 in1013.9 mb 0.00 in0.0 mm 0.00 in0.0 mm 0.75 in19.1 mm
09:25 PM 65.5°F18.6°C 59.0°F15.0°C 78% 1.6 mph S2.6 kmh S 2.9 mph4.7 kmh 29.94 in1013.9 mb 0.00 in0.0 mm 0.00 in0.0 mm 0.75 in19.1 mm
09:30 PM 65.1°F18.4°C 57.2°F14.0°C 78% 1.1 mph SSE1.8 kmh SSE 2.9 mph4.7 kmh 29.94 in1013.9 mb 0.00 in0.0 mm 0.00 in0.0 mm 0.75 in19.1 mm
09:35 PM 64.9°F18.3°C 57.2°F14.0°C 78% 1.1 mph SSE1.8 kmh SSE 2.2 mph3.5 kmh 29.94 in1013.9 mb 0.00 in0.0 mm 0.00 in0.0 mm 0.75 in19.1 mm
09:40 PM 64.8°F18.2°C 57.2°F14.0°C 78% Calm Calm 1.6 mph2.6 kmh 29.94 in1013.9 mb 0.00 in0.0 mm 0.00 in0.0 mm 0.75 in19.1 mm
09:45 PM 64.4°F18.0°C 59.0°F15.0°C 80% 1.6 mph SSE2.6 kmh SSE 3.1 mph5.0 kmh 29.94 in1013.9 mb 0.00 in0.0 mm 0.00 in0.0 mm 0.75 in19.1 mm
09:50 PM 64.2°F17.9°C 59.0°F15.0°C 80% Calm Calm 3.1 mph5.0 kmh 29.94 in1013.9 mb 0.00 in0.0 mm 0.00 in0.0 mm 0.75 in19.1 mm
09:55 PM 64.0°F17.8°C 57.2°F14.0°C 80% Calm Calm 1.6 mph2.6 kmh 29.91 in1012.9 mb 0.00 in0.0 mm 0.00 in0.0 mm 0.75 in19.1 mm
10:00 PM 63.9°F17.7°C 57.2°F14.0°C 81% Calm Calm 2.0 mph3.2 kmh 29.91 in1012.9 mb 0.00 in0.0 mm 0.00 in0.0 mm 0.75 in19.1 mm
10:05 PM 63.7°F17.6°C 59.0°F15.0°C 82% 1.6 mph SE2.6 kmh SE 2.5 mph4.0 kmh 29.91 in1012.9 mb 0.00 in0.0 mm 0.00 in0.0 mm 0.75 in19.1 mm
10:10 PM 63.7°F17.6°C 59.0°F15.0°C 82% 0.9 mph SSE1.4 kmh SSE 2.5 mph4.0 kmh 29.94 in1013.9 mb 0.00 in0.0 mm 0.00 in0.0 mm 0.75 in19.1 mm
10:15 PM 63.5°F17.5°C 59.0°F15.0°C 83% 1.3 mph SSE2.1 kmh SSE 2.5 mph4.0 kmh 29.94 in1013.9 mb 0.00 in0.0 mm 0.00 in0.0 mm 0.75 in19.1 mm
10:20 PM 63.3°F17.4°C 59.0°F15.0°C 84% 2.0 mph SSE3.2 kmh SSE 2.7 mph4.3 kmh 29.94 in1013.9 mb 0.00 in0.0 mm 0.00 in0.0 mm 0.75 in19.1 mm
10:25 PM 63.3°F17.4°C 59.0°F15.0°C 85% 2.5 mph S4.0 kmh S 4.0 mph6.4 kmh 29.91 in1012.9 mb 0.00 in0.0 mm 0.00 in0.0 mm 0.75 in19.1 mm
10:30 PM 63.3°F17.4°C 59.0°F15.0°C 84% 1.6 mph S2.6 kmh S 4.0 mph6.4 kmh 29.91 in1012.9 mb 0.00 in0.0 mm 0.00 in0.0 mm 0.75 in19.1 mm
10:35 PM 63.3°F17.4°C 59.0°F15.0°C 85% 3.1 mph S5.0 kmh S 4.3 mph6.9 kmh 29.91 in1012.9 mb 0.00 in0.0 mm 0.00 in0.0 mm 0.75 in19.1 mm
10:40 PM 63.3°F17.4°C 59.0°F15.0°C 85% 2.0 mph S3.2 kmh S 4.3 mph6.9 kmh 29.94 in1013.9 mb 0.00 in0.0 mm 0.00 in0.0 mm 0.75 in19.1 mm
10:45 PM 63.3°F17.4°C 59.0°F15.0°C 85% 2.7 mph S4.3 kmh S 3.4 mph5.5 kmh 29.94 in1013.9 mb 0.00 in0.0 mm 0.00 in0.0 mm 0.75 in19.1 mm
10:50 PM 63.1°F17.3°C 59.0°F15.0°C 85% 2.9 mph S4.7 kmh S 4.3 mph6.9 kmh 29.94 in1013.9 mb 0.00 in0.0 mm 0.00 in0.0 mm 0.75 in19.1 mm
10:55 PM 63.0°F17.2°C 59.0°F15.0°C 85% 3.1 mph SSE5.0 kmh SSE 5.4 mph8.7 kmh 29.91 in1012.9 mb 0.00 in0.0 mm 0.00 in0.0 mm 0.75 in19.1 mm
11:00 PM 62.8°F17.1°C 59.0°F15.0°C 86% 2.7 mph SSE4.3 kmh SSE 5.4 mph8.7 kmh 29.91 in1012.9 mb 0.00 in0.0 mm 0.00 in0.0 mm 0.75 in19.1 mm
11:05 PM 63.0°F17.2°C 59.0°F15.0°C 86% 2.5 mph SSE4.0 kmh SSE 5.4 mph8.7 kmh 29.91 in1012.9 mb 0.00 in0.0 mm 0.00 in0.0 mm 0.75 in19.1 mm
11:10 PM 63.0°F17.2°C 59.0°F15.0°C 86% 2.9 mph S4.7 kmh S 4.7 mph7.6 kmh 29.91 in1012.9 mb 0.00 in0.0 mm 0.00 in0.0 mm 0.75 in19.1 mm
11:15 PM 63.1°F17.3°C 59.0°F15.0°C 86% 3.6 mph S5.8 kmh S 4.3 mph6.9 kmh 29.91 in1012.9 mb 0.00 in0.0 mm 0.00 in0.0 mm 0.75 in19.1 mm
11:20 PM 63.1°F17.3°C 59.0°F15.0°C 85% 4.0 mph S6.4 kmh S 4.9 mph7.9 kmh 29.91 in1012.9 mb 0.00 in0.0 mm 0.00 in0.0 mm 0.75 in19.1 mm
11:25 PM 63.3°F17.4°C 59.0°F15.0°C 85% 2.9 mph S4.7 kmh S 6.0 mph9.7 kmh 29.91 in1012.9 mb 0.00 in0.0 mm 0.00 in0.0 mm 0.75 in19.1 mm
11:30 PM 63.3°F17.4°C 59.0°F15.0°C 85% 2.5 mph S4.0 kmh S 6.0 mph9.7 kmh 29.91 in1012.9 mb 0.00 in0.0 mm 0.00 in0.0 mm 0.75 in19.1 mm
11:35 PM 63.3°F17.4°C 59.0°F15.0°C 86% 2.7 mph S4.3 kmh S 3.1 mph5.0 kmh 29.91 in1012.9 mb 0.00 in0.0 mm 0.00 in0.0 mm 0.75 in19.1 mm
11:40 PM 63.3°F17.4°C 59.0°F15.0°C 85% 3.8 mph S6.1 kmh S 4.9 mph7.9 kmh 29.94 in1013.9 mb 0.00 in0.0 mm 0.00 in0.0 mm 0.75 in19.1 mm
11:45 PM 63.5°F17.5°C 59.0°F15.0°C 85% 2.7 mph S4.3 kmh S 4.9 mph7.9 kmh 29.94 in1013.9 mb 0.00 in0.0 mm 0.00 in0.0 mm 0.75 in19.1 mm
11:50 PM 63.5°F17.5°C 59.0°F15.0°C 85% 2.5 mph S4.0 kmh S 5.6 mph9.0 kmh 29.94 in1013.9 mb 0.00 in0.0 mm 0.00 in0.0 mm 0.75 in19.1 mm
11:55 PM 63.5°F17.5°C 59.0°F15.0°C 85% 2.7 mph S4.3 kmh S 5.6 mph9.0 kmh 29.97 in1014.9 mb 0.00 in0.0 mm 0.00 in0.0 mm 0.75 in19.1 mm